createdAt,value
2019-05-14T00:00:14.313Z,72.2290
2019-05-14T00:01:17.244Z,72.3328
2019-05-14T00:02:21.402Z,72.3328
2019-05-14T00:03:24.292Z,72.3328
2019-05-14T00:04:27.332Z,72.3328
2019-05-14T00:05:32.196Z,72.4365
2019-05-14T00:06:34.287Z,72.5403
2019-05-14T00:07:37.303Z,72.6746
2019-05-14T00:08:41.804Z,72.5403
2019-05-14T00:09:45.343Z,72.7783
2019-05-14T00:10:48.262Z,72.6746
2019-05-14T00:11:51.412Z,72.5769
2019-05-14T00:12:54.270Z,72.6746
2019-05-14T00:13:57.309Z,73.0896
2019-05-14T00:15:02.134Z,73.0896
2019-05-14T00:16:05.308Z,73.1934
2019-05-14T00:17:08.307Z,73.1934
2019-05-14T00:18:11.727Z,72.9858
2019-05-14T00:19:15.304Z,72.8821
2019-05-14T00:20:18.329Z,72.8821
2019-05-14T00:21:21.295Z,72.9858
2019-05-14T00:22:24.274Z,72.9858
2019-05-14T00:23:27.297Z,72.9858
2019-05-14T00:24:32.254Z,73.0896
2019-05-14T00:25:35.342Z,72.8821
2019-05-14T00:26:39.342Z,72.2656
2019-05-14T00:27:42.294Z,72.3694
2019-05-14T00:28:45.288Z,72.3694
2019-05-14T00:29:48.317Z,72.6746
2019-05-14T00:30:52.379Z,72.8821
2019-05-14T00:31:55.286Z,72.6746
2019-05-14T00:32:58.354Z,72.6746
2019-05-14T00:34:01.734Z,72.5769
2019-05-14T00:35:05.319Z,73.0896
2019-05-14T00:36:08.274Z,72.8821
2019-05-14T00:37:11.684Z,72.6746
2019-05-14T00:38:14.293Z,72.7783
2019-05-14T00:39:16.340Z,72.4731
2019-05-14T00:40:19.351Z,72.6746
2019-05-14T00:41:23.342Z,72.6746
2019-05-14T00:42:26.325Z,72.4731
2019-05-14T00:43:29.290Z,72.3694
2019-05-14T00:44:32.558Z,72.5769
2019-05-14T00:45:35.347Z,72.7783
2019-05-14T00:46:38.319Z,72.5769
2019-05-14T00:47:41.917Z,72.7783
2019-05-14T00:48:45.261Z,72.7783
2019-05-14T00:49:48.354Z,73.1934
2019-05-14T00:50:51.778Z,73.1934
2019-05-14T00:51:55.295Z,73.1934
2019-05-14T00:52:58.303Z,73.1934
2019-05-14T00:54:01.701Z,73.2971
2019-05-14T00:55:05.274Z,73.6023
2019-05-14T00:56:08.356Z,73.8098
2019-05-14T00:57:11.836Z,73.8098
2019-05-14T00:58:16.285Z,73.9136
2019-05-14T00:59:21.520Z,74.0173
2019-05-14T01:00:23.274Z,74.1211
2019-05-14T01:01:26.344Z,74.1211
2019-05-14T01:02:29.271Z,74.0173
2019-05-14T01:03:32.610Z,74.0173
2019-05-14T01:04:35.278Z,73.8464
2019-05-14T01:05:38.283Z,73.9136
2019-05-14T01:06:42.033Z,73.7427
2019-05-14T01:07:45.317Z,74.0540
2019-05-14T01:08:47.348Z,74.1516
2019-05-14T01:09:52.397Z,74.0540
2019-05-14T01:10:55.329Z,74.2554
2019-05-14T01:11:58.301Z,73.9502
2019-05-14T01:13:01.437Z,73.6389
2019-05-14T01:14:04.308Z,73.6389
2019-05-14T01:15:10.745Z,73.8464
2019-05-14T01:16:15.327Z,73.8464
2019-05-14T01:17:18.330Z,73.8464
2019-05-14T01:18:21.888Z,73.9502
2019-05-14T01:19:25.293Z,73.9502
2019-05-14T01:20:27.328Z,74.0540
2019-05-14T01:21:31.218Z,74.0540
2019-05-14T01:22:34.307Z,73.9502
2019-05-14T01:23:37.307Z,73.9502
2019-05-14T01:24:41.719Z,73.9502
2019-05-14T01:25:47.317Z,73.8464
2019-05-14T01:26:52.250Z,73.8464
2019-05-14T01:27:55.291Z,73.7427
2019-05-14T01:28:58.277Z,73.7427
2019-05-14T01:30:02.039Z,73.5352
2019-05-14T01:31:05.296Z,73.2239
2019-05-14T01:32:08.332Z,73.5352
2019-05-14T01:33:11.874Z,73.5352
2019-05-14T01:34:15.318Z,73.6389
2019-05-14T01:35:18.278Z,73.2239
2019-05-14T01:36:21.577Z,73.0225
2019-05-14T01:37:24.278Z,73.1201
2019-05-14T01:38:27.323Z,72.9187
2019-05-14T01:39:32.093Z,72.8149
2019-05-14T01:40:35.279Z,72.7112
2019-05-14T01:41:38.325Z,72.5037
2019-05-14T01:42:41.741Z,72.6074
2019-05-14T01:43:45.299Z,72.6074
2019-05-14T01:44:48.278Z,72.5037
2019-05-14T01:45:52.454Z,72.3999
2019-05-14T01:46:55.261Z,72.3999
2019-05-14T01:47:58.307Z,72.3999
2019-05-14T01:49:01.659Z,72.1924
2019-05-14T01:50:04.286Z,72.2290
2019-05-14T01:51:07.338Z,72.1252
2019-05-14T01:52:11.277Z,71.9177
2019-05-14T01:53:14.318Z,71.8140
2019-05-14T01:54:17.284Z,72.0215
2019-05-14T01:55:21.905Z,71.7102
2019-05-14T01:56:25.316Z,71.8140
2019-05-14T01:57:28.317Z,71.7102
2019-05-14T01:58:31.358Z,71.7102
2019-05-14T01:59:34.293Z,71.7102
2019-05-14T02:00:37.318Z,71.8140
2019-05-14T02:01:41.503Z,71.8140
2019-05-14T02:02:44.314Z,72.0215
2019-05-14T02:03:47.274Z,72.0215
2019-05-14T02:04:51.330Z,71.9177
2019-05-14T02:05:54.304Z,71.8140
2019-05-14T02:06:57.328Z,71.7102
2019-05-14T02:08:01.714Z,71.6064
2019-05-14T02:09:05.290Z,71.7102
2019-05-14T02:10:08.296Z,71.6064
2019-05-14T02:11:12.121Z,71.7102
2019-05-14T02:12:15.381Z,71.8140
2019-05-14T02:13:18.268Z,72.0215
2019-05-14T02:14:22.030Z,71.9177
2019-05-14T02:15:36.305Z,71.5088
2019-05-14T02:16:33.279Z,71.9177
2019-05-14T02:17:36.281Z,72.1252
2019-05-14T02:18:41.457Z,72.2290
2019-05-14T02:19:44.274Z,71.8140
2019-05-14T02:20:47.275Z,72.0215
2019-05-14T02:21:51.436Z,72.2290
2019-05-14T02:22:54.259Z,72.0215
2019-05-14T02:23:56.311Z,72.1252
2019-05-14T02:24:59.264Z,72.0215
2019-05-14T02:26:02.690Z,71.9177
2019-05-14T02:27:06.315Z,71.9177
2019-05-14T02:28:11.414Z,71.9177
2019-05-14T02:29:14.284Z,71.9177
2019-05-14T02:30:20.282Z,71.8140
2019-05-14T02:31:25.288Z,71.7102
2019-05-14T02:32:29.753Z,71.8140
2019-05-14T02:33:33.310Z,71.9177
2019-05-14T02:34:39.459Z,71.6064
2019-05-14T02:35:43.323Z,71.8140
2019-05-14T02:36:49.425Z,71.5088
2019-05-14T02:37:52.337Z,71.1975
2019-05-14T02:38:55.291Z,71.1975
2019-05-14T02:39:59.667Z,71.4050
2019-05-14T02:41:03.317Z,71.7102
2019-05-14T02:42:09.570Z,71.8140
2019-05-14T02:43:13.313Z,71.6064
2019-05-14T02:44:18.881Z,71.5088
2019-05-14T02:45:21.272Z,71.7102
2019-05-14T02:46:24.339Z,71.4050
2019-05-14T02:47:29.885Z,71.5088
2019-05-14T02:48:33.401Z,71.5088
2019-05-14T02:49:39.340Z,71.3013
2019-05-14T02:50:43.285Z,71.0938
2019-05-14T02:51:50.070Z,70.7825
2019-05-14T02:52:53.348Z,71.0938
2019-05-14T02:53:58.919Z,71.1975
2019-05-14T02:55:02.297Z,71.1975
2019-05-14T02:56:05.313Z,71.0205
2019-05-14T02:57:10.378Z,71.3318
2019-05-14T02:58:14.329Z,70.7153
2019-05-14T02:59:19.599Z,70.8191
2019-05-14T03:00:23.305Z,70.9167
2019-05-14T03:01:26.285Z,70.8191
2019-05-14T03:02:29.808Z,70.8191
2019-05-14T03:03:33.302Z,71.0205
2019-05-14T03:04:39.181Z,71.0205
2019-05-14T03:05:42.300Z,70.9167
2019-05-14T03:06:45.317Z,71.1243
2019-05-14T03:07:49.989Z,71.0205
2019-05-14T03:08:53.343Z,70.4041
2019-05-14T03:09:59.194Z,70.7153
2019-05-14T03:11:01.330Z,70.9167
2019-05-14T03:12:04.291Z,70.9167
2019-05-14T03:13:09.493Z,70.9167
2019-05-14T03:14:12.319Z,70.6116
2019-05-14T03:15:15.308Z,70.5078
2019-05-14T03:16:26.036Z,70.6116
2019-05-14T03:17:29.768Z,70.4041
2019-05-14T03:18:33.370Z,70.5078
2019-05-14T03:19:36.275Z,70.5078
2019-05-14T03:20:39.019Z,70.1965
2019-05-14T03:21:42.303Z,70.5078
2019-05-14T03:23:01.365Z,70.9167
2019-05-14T03:23:53.326Z,71.0205
2019-05-14T03:24:59.621Z,71.0205
2019-05-14T03:26:03.312Z,71.2280
2019-05-14T03:27:09.322Z,71.2280
2019-05-14T03:28:13.327Z,71.2280
2019-05-14T03:29:19.351Z,71.1243
2019-05-14T03:30:23.498Z,71.1243
2019-05-14T03:31:32.255Z,71.1243
2019-05-14T03:32:34.297Z,71.2280
2019-05-14T03:33:43.010Z,71.2280
2019-05-14T03:34:45.305Z,71.1243
2019-05-14T03:35:56.360Z,71.1243
2019-05-14T03:37:02.367Z,71.0205
2019-05-14T03:38:04.315Z,71.0205
2019-05-14T03:39:10.251Z,71.0205
2019-05-14T03:40:13.297Z,71.0205
2019-05-14T03:41:19.429Z,71.0205
2019-05-14T03:42:22.271Z,70.9167
2019-05-14T03:43:25.332Z,71.0205
2019-05-14T03:44:29.112Z,71.0205
2019-05-14T03:45:32.339Z,71.1243
2019-05-14T03:46:45.678Z,71.2280
2019-05-14T03:47:43.309Z,71.3684
2019-05-14T03:48:49.038Z,71.3684
2019-05-14T03:49:52.284Z,71.3684
2019-05-14T03:50:55.313Z,71.4661
2019-05-14T03:52:00.452Z,71.4661
2019-05-14T03:53:03.318Z,71.4661
2019-05-14T03:54:11.390Z,71.4661
2019-05-14T03:55:14.281Z,71.4661
2019-05-14T03:56:19.237Z,71.3684
2019-05-14T03:57:22.286Z,71.2646
2019-05-14T03:58:25.298Z,71.2646
2019-05-14T03:59:29.307Z,71.1609
2019-05-14T04:00:32.290Z,71.1609
2019-05-14T04:01:35.275Z,71.2646
2019-05-14T04:02:39.116Z,71.3684
2019-05-14T04:03:42.313Z,71.3684
2019-05-14T04:04:45.308Z,71.2646
2019-05-14T04:05:49.382Z,71.1609
2019-05-14T04:06:52.305Z,71.0571
2019-05-14T04:07:55.307Z,70.9534
2019-05-14T04:09:00.626Z,70.9534
2019-05-14T04:10:04.287Z,71.0571
2019-05-14T04:11:09.624Z,71.2646
2019-05-14T04:12:13.297Z,71.2646
2019-05-14T04:13:19.585Z,71.2646
2019-05-14T04:14:23.296Z,71.2646
2019-05-14T04:15:29.643Z,71.2646
2019-05-14T04:16:33.332Z,71.2646
2019-05-14T04:17:38.783Z,71.2646
2019-05-14T04:18:44.326Z,71.2646
2019-05-14T04:19:49.270Z,71.4661
2019-05-14T04:20:52.300Z,71.4661
2019-05-14T04:21:55.313Z,71.3684
2019-05-14T04:23:00.006Z,71.3684
2019-05-14T04:24:03.330Z,71.4661
2019-05-14T04:25:06.300Z,71.8811
2019-05-14T04:26:09.584Z,72.0886
2019-05-14T04:27:13.126Z,72.2961
2019-05-14T04:28:19.288Z,72.3999
2019-05-14T04:29:22.291Z,72.5342
2019-05-14T04:30:25.327Z,73.3643
2019-05-14T04:31:29.831Z,74.2554
2019-05-14T04:32:33.413Z,74.0479
2019-05-14T04:33:39.051Z,73.9502
2019-05-14T04:34:41.305Z,76.0132
2019-05-14T04:35:44.274Z,74.3591
2019-05-14T04:36:50.076Z,73.5657
2019-05-14T04:37:53.287Z,73.3643
2019-05-14T04:38:56.299Z,73.1201
2019-05-14T04:39:59.470Z,73.2239
2019-05-14T04:41:02.312Z,73.6389
2019-05-14T04:42:05.310Z,74.1516
2019-05-14T04:43:10.153Z,73.7427
2019-05-14T04:44:13.331Z,73.5352
2019-05-14T04:45:19.414Z,73.3276
2019-05-14T04:46:22.289Z,73.3276
2019-05-14T04:47:31.862Z,73.5352
2019-05-14T04:48:37.596Z,73.4314
2019-05-14T04:49:41.378Z,73.3276
2019-05-14T04:50:44.292Z,73.0164
2019-05-14T04:51:50.180Z,73.0164
2019-05-14T04:52:53.281Z,73.0164
2019-05-14T04:53:59.613Z,73.0164
2019-05-14T04:55:03.324Z,72.9126
2019-05-14T04:56:08.732Z,72.8088
2019-05-14T04:57:12.296Z,72.8088
2019-05-14T04:58:15.322Z,72.8088
2019-05-14T04:59:19.135Z,72.9126
2019-05-14T05:00:22.299Z,72.9126
2019-05-14T05:01:25.359Z,72.9126
2019-05-14T05:02:30.110Z,72.8088
2019-05-14T05:03:33.286Z,72.8088
2019-05-14T05:04:36.301Z,72.8088
2019-05-14T05:05:39.531Z,72.8088
2019-05-14T05:06:42.318Z,72.8088
2019-05-14T05:07:45.326Z,72.9126
2019-05-14T05:08:49.806Z,73.1201
2019-05-14T05:09:53.319Z,73.1201
2019-05-14T05:10:59.658Z,73.2239
2019-05-14T05:12:03.317Z,73.2239
2019-05-14T05:13:09.031Z,73.2239
2019-05-14T05:14:12.308Z,72.7112
2019-05-14T05:15:14.329Z,73.0164
2019-05-14T05:16:19.224Z,73.3276
2019-05-14T05:17:38.920Z,73.3276
2019-05-14T05:18:32.302Z,73.2239
2019-05-14T05:19:35.354Z,72.9126
2019-05-14T05:20:39.444Z,73.0164
2019-05-14T05:21:42.287Z,72.7112
2019-05-14T05:22:45.299Z,73.2239
2019-05-14T05:23:49.221Z,73.2239
2019-05-14T05:24:52.361Z,73.1934
2019-05-14T05:25:55.299Z,73.1934
2019-05-14T05:26:58.619Z,73.0896
2019-05-14T05:28:01.303Z,73.1934
2019-05-14T05:29:07.208Z,73.0896
2019-05-14T05:30:12.339Z,73.0896
2019-05-14T05:31:15.305Z,73.0896
2019-05-14T05:32:19.412Z,72.9858
2019-05-14T05:33:23.305Z,72.8821
2019-05-14T05:34:28.288Z,72.6746
2019-05-14T05:35:31.311Z,72.5708
2019-05-14T05:36:34.300Z,72.6746
2019-05-14T05:37:38.447Z,72.6746
2019-05-14T05:38:42.310Z,71.9543
2019-05-14T05:39:45.308Z,72.3633
2019-05-14T05:40:48.685Z,72.5708
2019-05-14T05:41:51.311Z,72.3633
2019-05-14T05:42:54.300Z,72.4670
2019-05-14T05:43:58.915Z,72.0581
2019-05-14T05:45:02.303Z,71.8140
2019-05-14T05:46:05.329Z,71.7102
2019-05-14T05:47:09.269Z,71.3013
2019-05-14T05:48:12.303Z,71.3013
2019-05-14T05:49:15.288Z,71.3013
2019-05-14T05:50:19.379Z,71.4050
2019-05-14T05:51:23.332Z,71.5088
2019-05-14T05:52:28.239Z,71.1975
2019-05-14T05:53:31.275Z,71.0938
2019-05-14T05:54:34.291Z,71.3013
2019-05-14T05:55:39.275Z,71.1975
2019-05-14T05:56:42.358Z,70.6787
2019-05-14T05:57:45.334Z,70.7825
2019-05-14T05:58:48.952Z,70.2698
2019-05-14T05:59:52.309Z,70.3735
2019-05-14T06:00:55.287Z,69.8547
2019-05-14T06:01:58.800Z,69.4397
2019-05-14T06:03:02.310Z,69.2383
2019-05-14T06:04:05.295Z,69.5435
2019-05-14T06:05:08.334Z,70.0623
2019-05-14T06:06:13.388Z,69.6167
2019-05-14T06:07:18.392Z,69.5129
2019-05-14T06:08:21.304Z,69.6167
2019-05-14T06:09:24.334Z,69.5129
2019-05-14T06:10:29.179Z,69.3054
2019-05-14T06:11:32.322Z,69.2017
2019-05-14T06:12:34.339Z,68.9636
2019-05-14T06:13:39.016Z,69.0674
2019-05-14T06:14:42.281Z,69.1711
2019-05-14T06:15:48.818Z,69.3787
2019-05-14T06:16:53.321Z,69.5862
2019-05-14T06:18:13.359Z,68.7622
2019-05-14T06:19:08.201Z,68.4509
2019-05-14T06:20:11.292Z,69.0674
2019-05-14T06:21:14.303Z,68.7622
2019-05-14T06:22:18.924Z,67.8345
2019-05-14T06:23:22.351Z,68.2434
2019-05-14T06:24:25.319Z,68.5242
2019-05-14T06:25:31.336Z,69.0369
2019-05-14T06:26:34.317Z,69.0369
2019-05-14T06:27:38.070Z,69.2444
2019-05-14T06:28:41.141Z,69.2444
2019-05-14T06:29:44.278Z,68.7988
2019-05-14T06:30:48.413Z,69.0063
2019-05-14T06:31:51.292Z,69.3115
2019-05-14T06:32:54.351Z,68.1824
2019-05-14T06:33:59.109Z,68.2861
2019-05-14T06:35:02.333Z,68.3533
2019-05-14T06:36:08.716Z,68.0481
2019-05-14T06:37:12.336Z,68.0481
2019-05-14T06:38:15.314Z,68.3533
2019-05-14T06:39:18.419Z,68.7683
2019-05-14T06:40:21.344Z,68.7683
2019-05-14T06:41:24.294Z,68.4570
2019-05-14T06:42:28.507Z,69.3848
2019-05-14T06:43:32.350Z,69.3542
2019-05-14T06:44:35.305Z,69.5557
2019-05-14T06:45:39.143Z,69.4580
2019-05-14T06:46:43.356Z,68.2190
2019-05-14T06:47:48.621Z,67.3645
2019-05-14T06:48:52.362Z,68.0847
2019-05-14T06:49:55.303Z,67.9810
2019-05-14T06:50:58.536Z,67.3645
2019-05-14T06:52:01.312Z,68.5974
2019-05-14T06:53:04.295Z,68.0847
2019-05-14T06:54:09.206Z,67.6758
2019-05-14T06:55:12.295Z,67.7795
2019-05-14T06:56:18.802Z,68.0847
2019-05-14T06:57:23.278Z,67.1265
2019-05-14T06:58:26.304Z,67.8467
2019-05-14T06:59:29.357Z,67.8467
2019-05-14T07:00:31.348Z,67.5415
2019-05-14T07:01:34.317Z,67.6453
2019-05-14T07:02:43.240Z,67.9504
2019-05-14T07:03:45.337Z,67.9199
2019-05-14T07:04:48.541Z,67.7124
2019-05-14T07:05:51.319Z,67.7124
2019-05-14T07:06:54.298Z,67.3035
2019-05-14T07:07:59.704Z,67.2729
2019-05-14T07:09:03.300Z,67.0654
2019-05-14T07:10:08.739Z,67.1692
2019-05-14T07:11:12.252Z,66.5527
2019-05-14T07:12:15.331Z,66.2476
2019-05-14T07:13:18.939Z,65.2161
2019-05-14T07:14:21.302Z,66.6565
2019-05-14T07:15:24.336Z,67.4805
2019-05-14T07:16:28.682Z,67.0349
2019-05-14T07:17:32.302Z,67.2424
2019-05-14T07:18:46.398Z,66.7297
2019-05-14T07:19:43.351Z,66.1133
2019-05-14T07:20:48.359Z,66.3147
2019-05-14T07:21:51.314Z,65.7043
2019-05-14T07:22:54.308Z,66.5222
2019-05-14T07:23:56.317Z,65.9058
2019-05-14T07:24:59.328Z,64.1602
2019-05-14T07:26:02.292Z,64.9841
2019-05-14T07:27:05.324Z,65.3931
2019-05-14T07:28:08.860Z,65.6006
2019-05-14T07:29:12.312Z,65.0879
2019-05-14T07:30:15.323Z,64.9841
2019-05-14T07:31:18.793Z,65.2893
2019-05-14T07:32:22.284Z,65.1855
2019-05-14T07:33:25.510Z,65.0146
2019-05-14T07:34:28.440Z,63.3667
2019-05-14T07:35:31.327Z,62.7502
2019-05-14T07:36:34.339Z,63.6780
2019-05-14T07:37:39.703Z,62.9578
2019-05-14T07:38:43.327Z,63.7817
2019-05-14T07:39:48.506Z,62.9578
2019-05-14T07:40:52.343Z,63.0615
2019-05-14T07:41:55.282Z,63.5742
2019-05-14T07:42:58.430Z,64.2944
2019-05-14T07:44:01.297Z,64.5020
2019-05-14T07:45:04.300Z,64.3982
2019-05-14T07:46:08.515Z,63.8855
2019-05-14T07:47:12.319Z,64.5020
2019-05-14T07:48:15.318Z,64.0869
2019-05-14T07:49:18.567Z,64.0869
2019-05-14T07:50:21.362Z,64.8071
2019-05-14T07:51:24.303Z,64.2944
2019-05-14T07:52:28.517Z,64.3982
2019-05-14T07:53:38.793Z,64.2944
2019-05-14T07:54:40.299Z,63.4705
2019-05-14T07:55:43.360Z,63.2690
2019-05-14T07:56:49.075Z,61.9324
2019-05-14T07:57:54.294Z,62.0361
2019-05-14T07:58:58.468Z,62.2375
2019-05-14T08:00:03.328Z,62.3413
2019-05-14T08:01:06.325Z,62.8540
2019-05-14T08:02:09.517Z,62.2375
2019-05-14T08:03:12.291Z,62.0361
2019-05-14T08:04:17.217Z,62.2375
2019-05-14T08:05:22.310Z,62.4451
2019-05-14T08:06:24.388Z,61.8286
2019-05-14T08:07:28.180Z,62.4451
2019-05-14T08:08:31.291Z,61.8286
2019-05-14T08:09:34.300Z,62.1399
2019-05-14T08:10:36.328Z,61.4929
2019-05-14T08:11:38.865Z,62.2131
2019-05-14T08:12:42.325Z,62.7258
2019-05-14T08:13:45.345Z,62.3108
2019-05-14T08:15:09.032Z,62.3108
2019-05-14T08:15:55.323Z,61.7004
2019-05-14T08:16:59.554Z,62.1094
2019-05-14T08:18:03.293Z,61.4929
2019-05-14T08:19:20.885Z,61.1816
2019-05-14T08:20:14.337Z,60.6689
2019-05-14T08:21:19.351Z,61.4929
2019-05-14T08:22:23.337Z,61.0840
2019-05-14T08:23:28.207Z,61.5967
2019-05-14T08:24:31.286Z,61.3892
2019-05-14T08:25:34.315Z,62.0789
2019-05-14T08:26:38.181Z,61.2610
2019-05-14T08:27:41.367Z,61.0535
2019-05-14T08:28:44.284Z,60.8459
2019-05-14T08:29:48.703Z,61.5662
2019-05-14T08:30:52.302Z,62.0789
2019-05-14T08:31:55.337Z,60.5408
2019-05-14T08:32:58.419Z,60.4370
2019-05-14T08:34:04.633Z,59.3079
2019-05-14T08:35:09.082Z,60.5408
2019-05-14T08:36:12.295Z,61.4624
2019-05-14T08:37:15.292Z,60.3333
2019-05-14T08:38:18.539Z,61.0229
2019-05-14T08:39:22.258Z,60.1013
2019-05-14T08:40:25.324Z,59.6924
2019-05-14T08:41:28.780Z,60.4065
2019-05-14T08:42:34.062Z,61.0229
2019-05-14T08:43:39.791Z,61.0229
2019-05-14T08:44:47.937Z,60.8215
2019-05-14T08:45:53.312Z,61.0229
2019-05-14T08:46:58.436Z,61.7126
2019-05-14T08:48:02.317Z,61.6089
2019-05-14T08:49:05.340Z,60.7910
2019-05-14T08:50:09.116Z,60.9985
2019-05-14T08:51:12.393Z,60.7910
2019-05-14T08:52:18.969Z,60.9680
2019-05-14T08:53:22.334Z,59.7412
2019-05-14T08:54:25.335Z,60.7361
2019-05-14T08:55:29.666Z,59.7839
2019-05-14T08:56:33.305Z,59.8328
2019-05-14T08:57:38.611Z,59.7290
2019-05-14T08:58:42.323Z,58.8562
2019-05-14T08:59:45.337Z,58.5999
2019-05-14T09:00:48.479Z,56.7322
2019-05-14T09:02:01.792Z,57.9285
2019-05-14T09:02:59.327Z,56.2744
2019-05-14T09:04:02.305Z,55.5603
2019-05-14T09:05:05.502Z,55.4321
2019-05-14T09:06:10.367Z,53.0090
2019-05-14T09:07:13.341Z,52.8809
2019-05-14T09:08:18.957Z,54.4861
2019-05-14T09:09:22.325Z,54.1809
2019-05-14T09:10:25.366Z,53.8269
2019-05-14T09:11:35.026Z,50.8545
2019-05-14T09:12:38.617Z,51.0315
2019-05-14T09:13:42.355Z,50.4211
2019-05-14T09:14:45.324Z,51.1108
2019-05-14T09:15:48.928Z,51.8982
2019-05-14T09:16:52.358Z,52.4841
2019-05-14T09:17:55.314Z,53.0396
2019-05-14T09:18:58.278Z,52.7893
2019-05-14T09:20:06.735Z,52.5391
2019-05-14T09:21:09.296Z,50.1404
2019-05-14T09:22:12.373Z,48.0957
2019-05-14T09:23:15.296Z,47.5403
2019-05-14T09:24:18.377Z,47.6013
2019-05-14T09:25:21.292Z,47.0703
2019-05-14T09:26:24.325Z,46.2646
2019-05-14T09:27:29.246Z,44.1101
2019-05-14T09:28:32.303Z,43.9880
2019-05-14T09:29:35.335Z,45.0745
2019-05-14T09:30:38.333Z,44.3237
2019-05-14T09:31:41.342Z,44.8059
2019-05-14T09:32:44.354Z,42.9565
2019-05-14T09:33:49.480Z,42.6331
2019-05-14T09:34:52.322Z,42.1143
2019-05-14T09:36:09.554Z,41.7908
2019-05-14T09:37:03.354Z,42.1753
2019-05-14T09:38:08.510Z,42.8528
2019-05-14T09:39:12.257Z,42.5354
2019-05-14T09:40:14.381Z,38.8123
2019-05-14T09:41:18.549Z,39.6118
2019-05-14T09:42:21.286Z,40.7532
2019-05-14T09:43:24.346Z,43.7988
2019-05-14T09:44:29.317Z,42.1143
2019-05-14T09:45:32.319Z,42.0166
2019-05-14T09:46:35.351Z,42.2119
2019-05-14T09:47:38.736Z,40.0879
2019-05-14T09:48:42.279Z,39.9719
2019-05-14T09:49:45.310Z,39.3494
2019-05-14T09:50:48.977Z,38.3301
2019-05-14T09:51:52.318Z,39.2151
2019-05-14T09:52:55.336Z,39.3921
2019-05-14T09:53:58.926Z,40.1733
2019-05-14T09:55:02.339Z,38.9587
2019-05-14T09:56:05.359Z,39.3555
2019-05-14T09:57:08.495Z,39.5386
2019-05-14T09:58:11.311Z,37.4207
2019-05-14T09:59:14.316Z,38.2202
2019-05-14T10:00:18.683Z,38.3240
2019-05-14T10:01:22.355Z,36.4075
2019-05-14T10:02:25.316Z,37.9028
2019-05-14T10:03:27.312Z,36.9080
2019-05-14T10:04:30.361Z,39.2212
2019-05-14T10:05:33.274Z,38.8000
2019-05-14T10:06:39.015Z,38.0005
2019-05-14T10:07:42.291Z,37.6831
2019-05-14T10:08:45.321Z,36.2915
2019-05-14T10:09:49.184Z,37.8662
2019-05-14T10:10:52.310Z,36.4746
2019-05-14T10:11:55.337Z,37.7502
2019-05-14T10:13:01.350Z,37.6526
2019-05-14T10:14:05.328Z,36.2366
2019-05-14T10:15:08.843Z,36.2549
2019-05-14T10:16:12.320Z,36.8530
2019-05-14T10:17:15.358Z,36.8530
2019-05-14T10:18:19.039Z,37.1521
2019-05-14T10:19:22.314Z,38.0493
2019-05-14T10:20:40.238Z,36.9324
2019-05-14T10:21:33.311Z,33.8501
2019-05-14T10:22:36.369Z,37.2314
2019-05-14T10:23:39.280Z,36.5356
2019-05-14T10:24:42.317Z,36.8347
2019-05-14T10:25:45.346Z,34.0454
2019-05-14T10:26:49.156Z,30.8594
2019-05-14T10:27:52.367Z,32.8674
2019-05-14T10:28:54.307Z,33.9966
2019-05-14T10:29:58.859Z,35.4248
2019-05-14T10:31:03.808Z,35.6445
2019-05-14T10:32:08.737Z,37.0422
2019-05-14T10:33:15.082Z,37.2437
2019-05-14T10:34:19.228Z,36.0779
2019-05-14T10:35:22.301Z,35.8948
2019-05-14T10:36:25.283Z,37.9333
2019-05-14T10:37:28.792Z,36.3464
2019-05-14T10:38:32.329Z,37.7502
2019-05-14T10:39:35.352Z,36.9324
2019-05-14T10:40:38.701Z,36.7126
2019-05-14T10:41:42.335Z,36.6943
2019-05-14T10:42:44.358Z,36.0779
2019-05-14T10:43:49.736Z,35.0586
2019-05-14T10:44:53.285Z,37.1399
2019-05-14T10:45:58.001Z,33.2458
2019-05-14T10:47:01.322Z,34.1309
2019-05-14T10:48:04.351Z,32.1350
2019-05-14T10:49:19.996Z,33.4290
2019-05-14T10:50:15.331Z,34.1309
2019-05-14T10:51:18.354Z,33.7280
2019-05-14T10:52:23.313Z,35.6079
2019-05-14T10:53:25.377Z,32.6294
2019-05-14T10:54:29.268Z,31.2500
2019-05-14T10:55:32.317Z,32.9773
2019-05-14T10:56:35.278Z,34.6130
2019-05-14T10:57:38.305Z,35.9924
2019-05-14T10:58:41.348Z,34.6924
2019-05-14T10:59:44.300Z,36.3770
2019-05-14T11:00:49.309Z,34.3628
2019-05-14T11:01:54.352Z,33.8318
2019-05-14T11:02:57.329Z,34.9121
2019-05-14T11:04:00.314Z,34.1980
2019-05-14T11:05:03.301Z,34.1797
2019-05-14T11:06:06.333Z,35.0586
2019-05-14T11:07:09.314Z,35.2417
2019-05-14T11:08:12.314Z,34.5642
2019-05-14T11:09:15.304Z,34.9792
2019-05-14T11:10:19.523Z,35.5103
2019-05-14T11:11:22.286Z,37.2559
2019-05-14T11:12:25.357Z,36.9934
2019-05-14T11:13:29.242Z,37.0300
2019-05-14T11:14:32.362Z,34.0576
2019-05-14T11:15:35.336Z,37.0667
2019-05-14T11:16:41.790Z,37.5488
2019-05-14T11:17:45.267Z,37.6282
2019-05-14T11:18:49.744Z,36.7310
2019-05-14T11:19:53.361Z,38.0493
2019-05-14T11:21:16.171Z,35.9314
2019-05-14T11:22:04.318Z,35.1135
2019-05-14T11:23:08.979Z,35.8765
2019-05-14T11:24:12.329Z,36.7920
2019-05-14T11:25:15.313Z,34.7961
2019-05-14T11:26:18.427Z,35.3271
2019-05-14T11:27:22.297Z,34.5459
2019-05-14T11:28:25.267Z,35.6628
2019-05-14T11:29:29.580Z,33.0444
2019-05-14T11:30:33.315Z,35.9436
2019-05-14T11:31:38.872Z,35.0586
2019-05-14T11:32:42.321Z,37.1643
2019-05-14T11:33:45.306Z,37.0667
2019-05-14T11:34:48.341Z,35.1624
2019-05-14T11:35:51.306Z,35.4797
2019-05-14T11:36:54.324Z,36.1145
2019-05-14T11:37:58.866Z,35.2295
2019-05-14T11:39:04.018Z,35.1257
2019-05-14T11:40:08.743Z,37.1155
2019-05-14T11:41:12.337Z,37.5000
2019-05-14T11:42:15.306Z,36.9995
2019-05-14T11:43:18.341Z,36.8835
2019-05-14T11:44:21.301Z,36.3464
2019-05-14T11:45:23.305Z,36.6272
2019-05-14T11:46:39.977Z,37.0483
2019-05-14T11:47:34.319Z,35.7605
2019-05-14T11:48:38.948Z,37.9822
2019-05-14T11:49:42.349Z,38.0005
2019-05-14T11:50:45.324Z,37.7197
2019-05-14T11:52:00.722Z,37.4573
2019-05-14T11:52:58.331Z,36.0474
2019-05-14T11:54:01.285Z,36.4502
2019-05-14T11:55:04.334Z,36.5845
2019-05-14T11:56:08.629Z,36.4868
2019-05-14T11:57:12.307Z,37.2864
2019-05-14T11:58:15.379Z,36.6882
2019-05-14T11:59:18.969Z,38.6780
2019-05-14T12:00:25.719Z,38.0371
2019-05-14T12:01:29.787Z,37.7014
2019-05-14T12:02:33.267Z,36.4624
2019-05-14T12:03:39.043Z,37.2314
2019-05-14T12:04:42.317Z,37.1277
2019-05-14T12:05:45.279Z,34.6130
2019-05-14T12:06:48.288Z,36.4929
2019-05-14T12:07:51.290Z,36.5784
2019-05-14T12:08:54.298Z,35.5591
2019-05-14T12:09:57.346Z,36.1450
2019-05-14T12:11:00.332Z,34.7473
2019-05-14T12:12:03.279Z,34.1309
2019-05-14T12:13:08.402Z,34.7290
2019-05-14T12:14:12.340Z,35.5591
2019-05-14T12:15:15.297Z,34.9915
2019-05-14T12:16:18.328Z,35.4919
2019-05-14T12:17:21.388Z,35.4919
2019-05-14T12:18:24.298Z,35.5286
2019-05-14T12:19:28.371Z,36.8286
2019-05-14T12:20:31.352Z,34.5581
2019-05-14T12:21:34.308Z,35.6628
2019-05-14T12:22:39.356Z,37.0850
2019-05-14T12:23:42.323Z,36.7004
2019-05-14T12:24:45.336Z,37.4390
2019-05-14T12:25:49.063Z,36.7493
2019-05-14T12:26:52.290Z,36.1511
2019-05-14T12:27:55.309Z,37.3535
2019-05-14T12:28:59.409Z,38.0554
2019-05-14T12:30:01.338Z,37.7563
2019-05-14T12:31:04.303Z,38.9587
2019-05-14T12:32:12.804Z,37.8540
2019-05-14T12:33:15.311Z,38.0737
2019-05-14T12:34:18.595Z,35.6628
2019-05-14T12:35:21.316Z,37.0850
2019-05-14T12:36:24.308Z,38.3118
2019-05-14T12:37:28.941Z,37.2253
2019-05-14T12:38:32.266Z,35.0281
2019-05-14T12:39:35.252Z,36.8591
2019-05-14T12:40:38.435Z,36.4685
2019-05-14T12:41:41.293Z,36.7920
2019-05-14T12:42:44.299Z,37.5122
2019-05-14T12:43:47.330Z,37.4329
2019-05-14T12:44:50.315Z,36.7432
2019-05-14T12:45:53.361Z,36.0535
2019-05-14T12:46:58.592Z,35.9314
2019-05-14T12:48:02.309Z,37.8357
2019-05-14T12:49:05.315Z,37.5122
2019-05-14T12:50:09.367Z,37.0911
2019-05-14T12:51:12.346Z,36.8713